createdAt,value
2019-04-10T00:00:53.005Z,86.50
2019-04-10T00:03:27.826Z,86.50
2019-04-10T00:05:52.140Z,86.30
2019-04-10T00:08:20.650Z,86.80
2019-04-10T00:10:49.096Z,86.60
2019-04-10T00:13:18.417Z,86.80
2019-04-10T00:15:47.005Z,87.00
2019-04-10T00:18:15.910Z,87.10
2019-04-10T00:20:44.916Z,87.10
2019-04-10T00:23:13.422Z,87.20
2019-04-10T00:25:41.877Z,86.80
2019-04-10T00:28:11.504Z,86.60
2019-04-10T00:30:40.965Z,87.10
2019-04-10T00:33:10.254Z,86.90
2019-04-10T00:35:39.406Z,87.10
2019-04-10T00:38:09.208Z,87.00
2019-04-10T00:40:39.424Z,87.10
2019-04-10T00:43:08.679Z,87.00
2019-04-10T00:45:37.646Z,87.00
2019-04-10T00:48:06.027Z,87.00
2019-04-10T00:50:34.805Z,86.20
2019-04-10T00:53:03.830Z,86.30
2019-04-10T00:55:32.836Z,85.60
2019-04-10T00:58:02.268Z,85.80
2019-04-10T01:00:30.876Z,85.70
2019-04-10T01:02:59.402Z,86.50
2019-04-10T01:05:27.729Z,85.80
2019-04-10T01:07:56.381Z,84.90
2019-04-10T01:10:24.992Z,85.70
2019-04-10T01:12:54.218Z,86.00
2019-04-10T01:15:23.238Z,85.60
2019-04-10T01:17:52.761Z,84.90
2019-04-10T01:20:21.703Z,84.70
2019-04-10T01:22:50.504Z,84.50
2019-04-10T01:25:19.093Z,83.90
2019-04-10T01:27:48.060Z,84.00
2019-04-10T01:30:16.516Z,84.40
2019-04-10T01:32:45.224Z,83.90
2019-04-10T01:35:13.976Z,83.40
2019-04-10T01:37:51.263Z,83.20
2019-04-10T01:40:14.958Z,83.30
2019-04-10T01:42:44.494Z,83.50
2019-04-10T01:45:14.108Z,83.70
2019-04-10T01:47:43.291Z,83.80
2019-04-10T01:50:12.460Z,83.20
2019-04-10T01:52:41.460Z,83.60
2019-04-10T01:55:22.315Z,83.70
2019-04-10T01:57:39.279Z,84.10
2019-04-10T02:00:11.083Z,83.20
2019-04-10T02:02:51.809Z,83.50
2019-04-10T02:05:20.708Z,83.50
2019-04-10T02:08:01.166Z,84.10
2019-04-10T02:10:20.420Z,83.90
2019-04-10T02:12:49.347Z,84.00
2019-04-10T02:15:17.918Z,83.80
2019-04-10T02:17:46.633Z,83.70
2019-04-10T02:20:15.037Z,84.60
2019-04-10T02:22:43.725Z,84.70
2019-04-10T02:25:12.066Z,84.30
2019-04-10T02:27:40.803Z,84.50
2019-04-10T02:30:12.044Z,84.70
2019-04-10T02:32:43.601Z,84.40
2019-04-10T02:35:13.154Z,84.10
2019-04-10T02:37:41.678Z,84.20
2019-04-10T02:40:10.951Z,84.00
2019-04-10T02:42:41.095Z,83.20
2019-04-10T02:45:12.310Z,83.70
2019-04-10T02:47:41.333Z,84.20
2019-04-10T02:50:11.913Z,84.00
2019-04-10T02:52:43.008Z,83.90
2019-04-10T02:55:11.907Z,84.20
2019-04-10T02:57:41.521Z,83.80
2019-04-10T03:00:12.747Z,83.90
2019-04-10T03:02:41.684Z,84.00
2019-04-10T03:05:10.985Z,84.10
2019-04-10T03:07:40.401Z,84.70
2019-04-10T03:10:23.294Z,84.80
2019-04-10T03:12:40.982Z,85.10
2019-04-10T03:15:12.231Z,85.30
2019-04-10T03:17:40.530Z,86.20
2019-04-10T03:20:09.885Z,86.50
2019-04-10T03:22:38.869Z,86.50
2019-04-10T03:25:08.714Z,86.50
2019-04-10T03:27:36.699Z,86.80
2019-04-10T03:30:10.432Z,86.90
2019-04-10T03:32:50.250Z,86.60
2019-04-10T03:35:21.197Z,87.20
2019-04-10T03:37:50.749Z,87.00
2019-04-10T03:40:19.554Z,87.10
2019-04-10T03:42:49.606Z,86.80
2019-04-10T03:45:17.360Z,87.20
2019-04-10T03:47:45.871Z,87.40
2019-04-10T03:50:14.384Z,86.90
2019-04-10T03:52:43.309Z,86.60
2019-04-10T03:55:12.525Z,86.50
2019-04-10T03:57:41.259Z,86.30
2019-04-10T04:00:09.935Z,86.20
2019-04-10T04:02:38.268Z,85.90
2019-04-10T04:05:06.679Z,86.20
2019-04-10T04:07:35.312Z,86.10
2019-04-10T04:10:06.139Z,85.50
2019-04-10T04:12:35.058Z,86.00
2019-04-10T04:15:03.951Z,85.30
2019-04-10T04:17:32.741Z,86.20
2019-04-10T04:20:02.516Z,85.90
2019-04-10T04:22:30.881Z,86.40
2019-04-10T04:25:00.271Z,86.80
2019-04-10T04:27:29.250Z,86.70
2019-04-10T04:29:57.714Z,86.90
2019-04-10T04:32:25.988Z,87.00
2019-04-10T04:34:54.751Z,86.90
2019-04-10T04:37:23.120Z,86.50
2019-04-10T04:39:52.159Z,88.10
2019-04-10T04:42:20.675Z,86.00
2019-04-10T04:44:48.949Z,85.70
2019-04-10T04:47:18.193Z,85.60
2019-04-10T04:49:46.789Z,85.80
2019-04-10T04:52:16.176Z,85.30
2019-04-10T04:54:45.545Z,85.10
2019-04-10T04:57:14.892Z,85.00
2019-04-10T04:59:43.438Z,84.70
2019-04-10T05:02:12.226Z,84.60
2019-04-10T05:04:41.633Z,84.50
2019-04-10T05:07:10.427Z,83.80
2019-04-10T05:09:40.425Z,83.70
2019-04-10T05:12:09.323Z,84.00
2019-04-10T05:14:37.858Z,83.60
2019-04-10T05:17:06.406Z,83.70
2019-04-10T05:19:36.097Z,83.10
2019-04-10T05:22:05.904Z,84.70
2019-04-10T05:24:34.888Z,83.50
2019-04-10T05:27:03.576Z,83.00
2019-04-10T05:29:32.434Z,85.40
2019-04-10T05:32:01.078Z,84.10
2019-04-10T05:34:29.649Z,83.50
2019-04-10T05:36:58.837Z,83.60
2019-04-10T05:39:39.155Z,83.90
2019-04-10T05:41:56.840Z,83.70
2019-04-10T05:44:25.630Z,83.70
2019-04-10T05:46:54.871Z,82.20
2019-04-10T05:49:24.585Z,81.90
2019-04-10T05:51:53.514Z,82.30
2019-04-10T05:54:22.571Z,81.10
2019-04-10T05:56:51.194Z,82.70
2019-04-10T05:59:19.678Z,82.70
2019-04-10T06:01:48.536Z,81.50
2019-04-10T06:04:17.183Z,82.50
2019-04-10T06:07:23.202Z,82.00
2019-04-10T06:09:55.836Z,79.80
2019-04-10T06:12:22.334Z,79.90
2019-04-10T06:14:50.743Z,79.80
2019-04-10T06:17:20.455Z,80.60
2019-04-10T06:19:49.273Z,81.00
2019-04-10T06:22:18.873Z,78.90
2019-04-10T06:24:47.461Z,78.60
2019-04-10T06:27:16.407Z,77.80
2019-04-10T06:29:46.274Z,76.00
2019-04-10T06:32:14.899Z,75.30
2019-04-10T06:34:43.374Z,75.20
2019-04-10T06:37:11.849Z,75.50
2019-04-10T06:39:42.049Z,74.90
2019-04-10T06:42:10.578Z,74.70
2019-04-10T06:44:39.140Z,72.70
2019-04-10T06:47:07.723Z,72.30
2019-04-10T06:49:36.602Z,72.00
2019-04-10T06:52:06.069Z,74.30
2019-04-10T06:54:34.639Z,72.50
2019-04-10T06:57:03.114Z,70.90
2019-04-10T06:59:32.442Z,70.10
2019-04-10T07:02:14.706Z,68.70
2019-04-10T07:04:42.849Z,69.30
2019-04-10T07:07:08.816Z,69.90
2019-04-10T07:09:33.717Z,69.10
2019-04-10T07:12:04.199Z,69.40
2019-04-10T07:14:36.219Z,67.30
2019-04-10T07:17:06.754Z,66.90
2019-04-10T07:19:34.434Z,68.10
2019-04-10T07:22:08.668Z,66.00
2019-04-10T07:24:37.000Z,62.80
2019-04-10T07:27:05.285Z,58.90
2019-04-10T07:29:34.610Z,57.90
2019-04-10T07:32:07.862Z,55.00
2019-04-10T07:34:34.106Z,52.90
2019-04-10T07:37:02.653Z,53.20
2019-04-10T07:39:33.518Z,53.00
2019-04-10T07:42:02.091Z,51.50
2019-04-10T07:44:30.559Z,49.80
2019-04-10T07:47:00.692Z,50.10
2019-04-10T07:49:30.823Z,50.50
2019-04-10T07:51:58.683Z,48.90
2019-04-10T07:54:27.388Z,47.80
2019-04-10T07:56:55.917Z,47.70
2019-04-10T07:59:25.046Z,48.60
2019-04-10T08:01:53.774Z,48.70
2019-04-10T08:04:22.988Z,49.30
2019-04-10T08:06:52.305Z,48.40
2019-04-10T08:09:20.956Z,46.30
2019-04-10T08:11:49.381Z,47.30
2019-04-10T08:14:17.666Z,47.60
2019-04-10T08:16:46.238Z,49.30
2019-04-10T08:19:14.969Z,49.30
2019-04-10T08:21:44.313Z,48.70
2019-04-10T08:24:13.527Z,45.90
2019-04-10T08:26:42.978Z,42.90
2019-04-10T08:29:12.097Z,42.10
2019-04-10T08:31:40.469Z,40.50
2019-04-10T08:34:08.919Z,39.10
2019-04-10T08:36:37.503Z,37.90
2019-04-10T08:39:06.910Z,37.30
2019-04-10T08:41:35.468Z,38.90
2019-04-10T08:44:04.417Z,38.00
2019-04-10T08:46:33.647Z,39.00
2019-04-10T08:49:03.497Z,37.30
2019-04-10T08:51:33.161Z,35.60
2019-04-10T08:54:02.636Z,37.90
2019-04-10T08:56:32.227Z,38.20
2019-04-10T08:59:01.093Z,36.20
2019-04-10T09:01:30.110Z,36.10
2019-04-10T09:03:59.426Z,35.10
2019-04-10T09:06:27.855Z,33.40
2019-04-10T09:08:57.170Z,32.30
2019-04-10T09:11:28.410Z,30.70
2019-04-10T09:13:56.915Z,33.60
2019-04-10T09:16:26.652Z,32.80
2019-04-10T09:18:55.767Z,30.90
2019-04-10T09:21:24.473Z,30.40
2019-04-10T09:23:55.715Z,29.40
2019-04-10T09:26:22.447Z,27.40
2019-04-10T09:28:51.126Z,28.10
2019-04-10T09:31:19.932Z,30.80
2019-04-10T09:33:49.557Z,29.70
2019-04-10T09:36:18.371Z,28.40
2019-04-10T09:38:47.929Z,29.20
2019-04-10T09:41:17.380Z,28.60
2019-04-10T09:43:46.086Z,30.30
2019-04-10T09:46:14.494Z,28.60
2019-04-10T09:48:42.851Z,28.80
2019-04-10T09:51:11.775Z,28.80
2019-04-10T09:53:41.266Z,29.80
2019-04-10T09:56:11.522Z,29.70
2019-04-10T09:58:40.560Z,30.00
2019-04-10T10:01:10.450Z,31.90
2019-04-10T10:03:40.004Z,31.10
2019-04-10T10:06:22.027Z,31.00
2019-04-10T10:08:40.135Z,32.10
2019-04-10T10:11:09.602Z,32.50
2019-04-10T10:13:39.312Z,34.90
2019-04-10T10:16:08.513Z,33.70
2019-04-10T10:18:37.390Z,34.20
2019-04-10T10:21:06.079Z,38.40
2019-04-10T10:23:35.995Z,36.80
2019-04-10T10:26:03.835Z,34.40
2019-04-10T10:28:33.226Z,33.30
2019-04-10T10:31:02.279Z,36.00
2019-04-10T10:33:30.735Z,38.00
2019-04-10T10:35:59.859Z,41.00
2019-04-10T10:38:29.440Z,41.00
2019-04-10T10:40:59.027Z,44.10
2019-04-10T10:43:28.695Z,41.20
2019-04-10T10:45:57.257Z,40.10
2019-04-10T10:48:26.015Z,41.30
2019-04-10T10:50:54.642Z,39.90
2019-04-10T10:53:24.054Z,38.80
2019-04-10T10:55:53.870Z,38.10
2019-04-10T10:58:22.125Z,39.70
2019-04-10T11:00:51.648Z,37.50
2019-04-10T11:03:20.422Z,37.50
2019-04-10T11:05:49.175Z,35.10
2019-04-10T11:08:17.913Z,35.50
2019-04-10T11:10:50.710Z,34.30
2019-04-10T11:13:16.444Z,34.70
2019-04-10T11:15:46.125Z,38.70
2019-04-10T11:18:15.774Z,41.30
2019-04-10T11:20:44.280Z,40.10
2019-04-10T11:23:13.354Z,41.00
2019-04-10T11:25:41.865Z,41.40
2019-04-10T11:28:10.151Z,40.60
2019-04-10T11:30:38.767Z,36.80
2019-04-10T11:33:08.529Z,36.60
2019-04-10T11:35:37.404Z,35.30
2019-04-10T11:38:06.024Z,35.20
2019-04-10T11:40:35.024Z,38.40
2019-04-10T11:43:05.119Z,38.80
2019-04-10T11:45:41.321Z,40.90
2019-04-10T11:48:03.595Z,43.50
2019-04-10T11:50:32.745Z,44.20
2019-04-10T11:53:02.208Z,43.80
2019-04-10T11:55:37.988Z,46.20
2019-04-10T11:58:01.394Z,44.80
2019-04-10T12:03:10.225Z,43.50
2019-04-10T12:05:41.132Z,44.30
2019-04-10T12:08:33.626Z,44.70
2019-04-10T12:13:10.233Z,45.10
2019-04-10T12:15:39.033Z,44.40
2019-04-10T12:18:08.567Z,45.20
2019-04-10T12:20:37.486Z,45.60
2019-04-10T12:23:05.904Z,46.20
2019-04-10T12:25:34.681Z,46.40
2019-04-10T12:28:03.346Z,44.50
2019-04-10T12:30:31.813Z,45.80
2019-04-10T12:33:01.091Z,46.90
2019-04-10T12:35:29.786Z,46.60
2019-04-10T12:38:02.851Z,47.10
2019-04-10T12:40:28.548Z,48.00
2019-04-10T12:42:57.197Z,50.50
2019-04-10T12:45:26.417Z,49.20
2019-04-10T12:47:54.963Z,50.10
2019-04-10T12:50:23.325Z,49.50
2019-04-10T12:52:51.747Z,48.80
2019-04-10T12:55:20.565Z,48.70
2019-04-10T12:57:49.194Z,48.90
2019-04-10T13:00:20.033Z,49.90
2019-04-10T13:02:48.667Z,49.30
2019-04-10T13:05:16.990Z,51.60
2019-04-10T13:07:45.616Z,50.30
2019-04-10T13:10:14.937Z,50.10
2019-04-10T13:12:43.410Z,50.20
2019-04-10T13:15:13.081Z,51.10
2019-04-10T13:17:42.751Z,52.30
2019-04-10T13:20:13.508Z,51.70
2019-04-10T13:22:42.356Z,51.80
2019-04-10T13:25:12.306Z,52.50
2019-04-10T13:27:41.185Z,52.30
2019-04-10T13:30:13.060Z,52.30
2019-04-10T13:32:42.432Z,51.90
2019-04-10T13:35:11.162Z,52.00
2019-04-10T13:37:40.024Z,53.10
2019-04-10T13:40:08.391Z,52.10
2019-04-10T13:42:37.302Z,53.30
2019-04-10T13:45:07.307Z,53.00
2019-04-10T13:47:35.861Z,53.40
2019-04-10T13:50:06.423Z,53.40
2019-04-10T13:52:36.528Z,54.60
2019-04-10T13:55:05.836Z,56.00
2019-04-10T13:57:34.762Z,55.90
2019-04-10T14:00:05.717Z,54.40
2019-04-10T14:02:36.016Z,55.20
2019-04-10T14:05:11.344Z,54.90
2019-04-10T14:07:40.296Z,55.10
2019-04-10T14:10:10.623Z,55.90
2019-04-10T14:12:39.553Z,55.80
2019-04-10T14:15:08.129Z,56.40
2019-04-10T14:17:37.621Z,56.70
2019-04-10T14:20:07.002Z,58.00
2019-04-10T14:22:37.949Z,56.80
2019-04-10T14:25:09.468Z,57.70
2019-04-10T14:27:38.556Z,58.40
2019-04-10T14:30:09.709Z,58.10
2019-04-10T14:32:37.990Z,58.30
2019-04-10T14:35:08.221Z,58.30
2019-04-10T14:37:37.915Z,57.40
2019-04-10T14:40:10.070Z,58.80
2019-04-10T14:42:38.575Z,57.90
2019-04-10T14:45:08.894Z,57.30
2019-04-10T14:47:39.181Z,56.90
2019-04-10T14:50:09.421Z,57.90
2019-04-10T14:52:39.490Z,57.50
2019-04-10T14:55:16.499Z,57.50
2019-04-10T14:57:46.119Z,57.40
2019-04-10T15:00:26.542Z,58.10
2019-04-10T15:03:00.060Z,57.80
2019-04-10T15:05:27.941Z,57.90
2019-04-10T15:07:57.488Z,57.90
2019-04-10T15:10:28.458Z,57.20
2019-04-10T15:13:13.144Z,58.40
2019-04-10T15:15:39.192Z,57.50
2019-04-10T15:18:08.846Z,58.10
2019-04-10T15:20:37.893Z,57.60
2019-04-10T15:23:12.334Z,58.30
2019-04-10T15:25:41.605Z,58.90
2019-04-10T15:28:10.457Z,57.70
2019-04-10T15:30:39.140Z,57.90
2019-04-10T15:33:07.517Z,58.20
2019-04-10T15:35:36.068Z,58.20
2019-04-10T15:38:04.466Z,58.50
2019-04-10T15:40:32.804Z,58.10
2019-04-10T15:43:02.993Z,59.10
2019-04-10T15:45:32.492Z,59.10
2019-04-10T15:48:03.119Z,59.10
2019-04-10T15:50:32.591Z,59.10
2019-04-10T15:53:02.121Z,58.90
2019-04-10T15:55:32.041Z,58.90
2019-04-10T15:58:02.264Z,59.00
2019-04-10T16:00:31.269Z,59.70
2019-04-10T16:03:00.670Z,59.90
2019-04-10T16:05:31.441Z,59.80
2019-04-10T16:08:00.779Z,59.90
2019-04-10T16:10:34.280Z,59.00
2019-04-10T16:13:22.536Z,59.20
2019-04-10T16:15:56.434Z,59.30
2019-04-10T16:18:28.914Z,58.90
2019-04-10T16:20:57.303Z,59.50
2019-04-10T16:23:31.287Z,59.50
2019-04-10T16:26:00.878Z,59.80
2019-04-10T16:28:29.734Z,59.80
2019-04-10T16:30:59.269Z,59.60
2019-04-10T16:33:27.922Z,58.70
2019-04-10T16:35:56.934Z,60.30
2019-04-10T16:38:26.716Z,59.70
2019-04-10T16:40:56.377Z,59.60
2019-04-10T16:43:26.344Z,60.00
2019-04-10T16:45:55.164Z,59.60
2019-04-10T16:48:24.801Z,59.90
2019-04-10T16:50:54.039Z,60.10
2019-04-10T16:53:22.432Z,60.20
2019-04-10T16:55:54.535Z,60.20
2019-04-10T16:58:23.459Z,59.90
2019-04-10T17:00:51.972Z,61.10
2019-04-10T17:03:21.729Z,60.80
2019-04-10T17:05:50.247Z,61.00
2019-04-10T17:08:19.605Z,60.40
2019-04-10T17:10:51.012Z,61.70
2019-04-10T17:13:20.686Z,62.10
2019-04-10T17:15:50.320Z,62.30
2019-04-10T17:18:19.369Z,62.40
2019-04-10T17:20:48.801Z,61.50
2019-04-10T17:23:18.517Z,62.00
2019-04-10T17:25:48.710Z,62.70
2019-04-10T17:28:18.421Z,63.40
2019-04-10T17:30:46.907Z,63.10
2019-04-10T17:33:16.453Z,63.40
2019-04-10T17:35:45.612Z,63.90
2019-04-10T17:38:14.317Z,63.60
2019-04-10T17:40:49.918Z,65.20
2019-04-10T17:43:12.932Z,66.50
2019-04-10T17:45:42.665Z,67.50
2019-04-10T17:48:11.695Z,65.40
2019-04-10T17:50:50.377Z,66.00
2019-04-10T17:53:18.869Z,66.80
2019-04-10T17:55:49.553Z,68.60
2019-04-10T17:58:19.087Z,68.80
2019-04-10T18:00:49.543Z,70.50
2019-04-10T18:03:18.939Z,69.50
2019-04-10T18:05:51.505Z,70.10
2019-04-10T18:08:21.196Z,68.90
2019-04-10T18:10:53.011Z,70.80
2019-04-10T18:13:20.616Z,69.90
2019-04-10T18:15:50.451Z,69.80
2019-04-10T18:18:18.330Z,70.60
2019-04-10T18:20:46.695Z,69.70
2019-04-10T18:23:15.509Z,70.90
2019-04-10T18:25:44.458Z,69.60
2019-04-10T18:28:13.723Z,70.00
2019-04-10T18:30:42.094Z,71.50
2019-04-10T18:33:10.542Z,69.50
2019-04-10T18:35:39.031Z,69.30
2019-04-10T18:38:08.948Z,69.80
2019-04-10T18:40:37.426Z,69.20
2019-04-10T18:43:05.833Z,68.90
2019-04-10T18:45:34.211Z,69.60
2019-04-10T18:48:02.806Z,70.40
2019-04-10T18:50:32.128Z,70.50
2019-04-10T18:53:01.572Z,69.70
2019-04-10T18:55:30.173Z,68.90
2019-04-10T18:57:59.154Z,70.50
2019-04-10T19:00:30.173Z,70.60
2019-04-10T19:03:09.599Z,71.70
2019-04-10T19:05:40.284Z,73.20
2019-04-10T19:08:11.219Z,71.40
2019-04-10T19:10:39.697Z,73.40
2019-04-10T19:13:08.231Z,75.20
2019-04-10T19:15:37.160Z,73.60
2019-04-10T19:18:07.585Z,74.70
2019-04-10T19:20:36.104Z,73.60
2019-04-10T19:23:04.523Z,74.20
2019-04-10T19:25:34.731Z,73.10
2019-04-10T19:28:04.454Z,76.40
2019-04-10T19:30:43.880Z,74.90
2019-04-10T19:33:12.295Z,75.00
2019-04-10T19:35:41.381Z,73.70
2019-04-10T19:38:09.883Z,73.10
2019-04-10T19:40:38.752Z,73.00
2019-04-10T19:43:08.288Z,74.00
2019-04-10T19:45:36.828Z,74.30
2019-04-10T19:48:06.790Z,75.20
2019-04-10T19:50:35.146Z,73.70
2019-04-10T19:53:04.750Z,73.30
2019-04-10T19:55:33.363Z,73.80
2019-04-10T19:58:01.817Z,74.50
2019-04-10T20:00:33.300Z,74.10
2019-04-10T20:03:01.646Z,75.00
2019-04-10T20:05:31.552Z,74.20
2019-04-10T20:07:59.637Z,74.20
2019-04-10T20:10:29.605Z,72.70
2019-04-10T20:12:57.483Z,73.30
2019-04-10T20:15:26.731Z,71.50
2019-04-10T20:17:55.315Z,72.60
2019-04-10T20:20:23.680Z,74.10
2019-04-10T20:22:53.482Z,73.90
2019-04-10T20:25:22.081Z,73.60
2019-04-10T20:27:52.057Z,73.90
2019-04-10T20:30:21.519Z,72.70
2019-04-10T20:32:50.221Z,72.10
2019-04-10T20:35:20.214Z,72.20
2019-04-10T20:37:49.182Z,73.20
2019-04-10T20:40:19.136Z,73.50
2019-04-10T20:42:47.141Z,75.10
2019-04-10T20:45:15.977Z,73.40
2019-04-10T20:47:44.295Z,74.70
2019-04-10T20:50:12.679Z,74.60
2019-04-10T20:52:41.081Z,74.70
2019-04-10T20:55:09.601Z,76.20
2019-04-10T20:57:38.060Z,76.60
2019-04-10T21:00:09.472Z,76.90
2019-04-10T21:02:38.794Z,76.90
2019-04-10T21:05:09.767Z,76.50
2019-04-10T21:07:37.429Z,78.10
2019-04-10T21:10:08.545Z,77.60
2019-04-10T21:12:37.007Z,78.00
2019-04-10T21:15:09.071Z,78.40
2019-04-10T21:17:37.943Z,77.80
2019-04-10T21:20:13.146Z,78.50
2019-04-10T21:22:40.669Z,79.10
2019-04-10T21:25:10.298Z,77.00
2019-04-10T21:27:39.661Z,77.00
2019-04-10T21:30:17.790Z,78.40
2019-04-10T21:32:58.304Z,76.70
2019-04-10T21:35:31.231Z,77.00
2019-04-10T21:37:59.764Z,76.50
2019-04-10T21:40:28.668Z,76.90
2019-04-10T21:42:58.083Z,76.40
2019-04-10T21:45:27.038Z,76.80
2019-04-10T21:47:55.602Z,76.20
2019-04-10T21:50:24.743Z,77.50
2019-04-10T21:52:53.169Z,77.80
2019-04-10T21:55:22.460Z,76.70
2019-04-10T21:57:51.828Z,78.00
2019-04-10T22:00:21.865Z,77.80
2019-04-10T22:02:52.023Z,77.10
2019-04-10T22:05:19.834Z,79.00
2019-04-10T22:07:50.317Z,76.10
2019-04-10T22:10:36.299Z,76.40
2019-04-10T22:13:05.889Z,77.00
2019-04-10T22:15:37.203Z,77.40
2019-04-10T22:18:07.319Z,77.20
2019-04-10T22:20:36.052Z,77.30
2019-04-10T22:23:04.828Z,76.50
2019-04-10T22:25:36.067Z,77.90
2019-04-10T22:28:04.565Z,77.30
2019-04-10T22:30:33.392Z,77.40
2019-04-10T22:33:01.649Z,77.80
2019-04-10T22:35:31.323Z,77.60
2019-04-10T22:38:00.364Z,78.20
2019-04-10T22:40:29.111Z,77.50
2019-04-10T22:42:57.783Z,77.90
2019-04-10T22:45:29.223Z,79.00
2019-04-10T22:47:58.600Z,77.70
2019-04-10T22:50:27.636Z,78.70
2019-04-10T22:52:57.706Z,77.80
2019-04-10T22:55:26.673Z,77.10
2019-04-10T22:57:55.332Z,78.30
2019-04-10T23:00:33.483Z,78.40
2019-04-10T23:03:03.204Z,77.00
2019-04-10T23:05:32.363Z,76.60
2019-04-10T23:08:01.275Z,76.50
2019-04-10T23:10:29.857Z,75.70
2019-04-10T23:13:02.870Z,76.00
2019-04-10T23:15:28.492Z,76.20
2019-04-10T23:17:57.261Z,76.00
2019-04-10T23:20:26.283Z,75.30
2019-04-10T23:22:55.009Z,75.40
2019-04-10T23:25:29.848Z,75.30
2019-04-10T23:27:58.904Z,75.90
2019-04-10T23:30:28.743Z,75.50
2019-04-10T23:32:57.573Z,75.30
2019-04-10T23:35:26.144Z,75.70
2019-04-10T23:37:55.211Z,75.90
2019-04-10T23:40:23.629Z,75.70
2019-04-10T23:43:02.657Z,74.70
2019-04-10T23:45:22.490Z,75.80
2019-04-10T23:47:51.137Z,75.50
2019-04-10T23:50:19.516Z,74.40
2019-04-10T23:52:47.986Z,74.10
2019-04-10T23:55:17.645Z,74.70
2019-04-10T23:57:46.671Z,74.10
